Time;durP1;ratioP1;P1;durP2;ratioP2;P2;SDS_P1;SDS_P2;PMS_P1;PMS_P2;Temp;Humidity;BMP_temperature;BMP_pressure;BME280_temperature;BME280_humidity;BME280_pressure;Samples;Min_cycle;Max_cycle;Signal;HPM_P1;HPM_P2
2022/10/30 00:00:56;;;;;;;24.80;11.85;;;13.80;99.90;;;;;;5014387;28;20046;-63
2022/10/30 00:03:23;;;;;;;20.75;12.00;;;13.80;99.90;;;;;;4996170;28;20116;-64
2022/10/30 00:05:51;;;;;;;21.25;12.27;;;13.80;99.90;;;;;;4994839;28;20057;-63
2022/10/30 00:08:21;;;;;;;24.50;12.02;;;13.70;99.90;;;;;;4996515;28;20449;-63
2022/10/30 00:10:50;;;;;;;22.80;12.20;;;13.70;99.90;;;;;;5013984;28;20096;-64
2022/10/30 00:13:18;;;;;;;21.27;12.77;;;13.70;99.90;;;;;;5012621;28;20482;-63
2022/10/30 00:15:48;;;;;;;26.45;11.85;;;13.60;99.90;;;;;;5014632;28;20509;-64
2022/10/30 00:18:15;;;;;;;22.88;13.38;;;13.60;99.90;;;;;;5013492;28;20448;-63
2022/10/30 00:20:42;;;;;;;22.33;11.50;;;13.60;99.90;;;;;;5014412;28;20489;-63
2022/10/30 00:23:08;;;;;;;20.00;12.32;;;13.50;99.90;;;;;;5014665;28;20050;-63
2022/10/30 00:25:35;;;;;;;19.20;12.30;;;13.60;99.90;;;;;;5011357;28;20516;-64
2022/10/30 00:28:04;;;;;;;19.20;11.93;;;13.50;99.90;;;;;;4996974;28;20054;-64
2022/10/30 00:30:33;;;;;;;25.90;12.00;;;13.50;99.90;;;;;;5014276;28;20049;-63
2022/10/30 00:33:00;;;;;;;23.42;11.70;;;13.40;99.90;;;;;;5014313;28;20119;-63
2022/10/30 00:35:27;;;;;;;23.40;12.98;;;13.40;99.90;;;;;;5014615;28;20053;-64
2022/10/30 00:37:54;;;;;;;25.95;14.00;;;13.40;99.90;;;;;;4996254;28;20461;-64
2022/10/30 00:40:22;;;;;;;21.00;11.27;;;13.40;99.90;;;;;;4996113;28;20058;-63
2022/10/30 00:42:49;;;;;;;25.33;11.60;;;13.30;99.90;;;;;;5013627;28;20052;-64
2022/10/30 00:45:19;;;;;;;19.65;11.10;;;13.30;99.90;;;;;;5013296;28;20053;-64
2022/10/30 00:47:52;;;;;;;20.90;12.10;;;13.30;99.90;;;;;;5013938;28;20665;-64
2022/10/30 00:50:24;;;;;;;23.23;10.48;;;13.30;99.90;;;;;;5014176;28;20046;-64
2022/10/30 00:52:54;;;;;;;21.38;11.95;;;13.30;99.90;;;;;;5013342;28;20417;-63
2022/10/30 00:55:25;;;;;;;18.83;11.35;;;13.30;99.90;;;;;;4994856;28;20096;-64
2022/10/30 00:57:53;;;;;;;24.30;11.48;;;13.30;99.90;;;;;;4996372;28;20100;-63
2022/10/30 01:00:22;;;;;;;20.92;11.32;;;13.30;99.90;;;;;;4995970;28;20547;-64
2022/10/30 01:02:50;;;;;;;19.30;10.38;;;13.30;99.90;;;;;;4996379;28;20045;-62
2022/10/30 01:05:19;;;;;;;26.55;11.20;;;13.30;99.90;;;;;;4994509;28;20493;-64
2022/10/30 01:07:46;;;;;;;20.50;11.77;;;13.30;99.90;;;;;;4995317;28;20552;-63
2022/10/30 01:10:14;;;;;;;18.98;10.57;;;13.30;99.90;;;;;;5013240;28;20513;-64
2022/10/30 01:12:43;;;;;;;18.20;10.18;;;13.30;99.90;;;;;;5011777;28;20049;-63
2022/10/30 01:15:11;;;;;;;20.42;11.98;;;13.30;99.90;;;;;;4995857;28;20180;-62
2022/10/30 01:18:03;;;;;;;32.00;12.70;;;13.30;99.90;;;;;;4996212;28;20057;-63
2022/10/30 01:20:52;;;;;;;26.38;12.10;;;13.40;99.90;;;;;;5013033;28;20046;-63
2022/10/30 01:23:33;;;;;;;20.27;10.65;;;13.30;99.90;;;;;;5013341;28;20096;-64
2022/10/30 01:26:09;;;;;;;22.10;11.85;;;13.30;99.90;;;;;;4995600;28;20553;-63
2022/10/30 01:28:54;;;;;;;18.35;10.50;;;13.30;99.90;;;;;;5012857;28;20069;-63
2022/10/30 01:31:31;;;;;;;21.35;10.77;;;13.30;99.90;;;;;;5013560;28;20485;-63
2022/10/30 01:34:10;;;;;;;19.67;11.18;;;13.30;99.90;;;;;;4991629;28;20045;-64
2022/10/30 01:36:43;;;;;;;19.30;10.95;;;13.30;99.90;;;;;;4995619;28;20053;-63
2022/10/30 01:39:13;;;;;;;23.02;11.52;;;13.30;99.90;;;;;;5012863;28;20041;-63
2022/10/30 01:41:40;;;;;;;21.73;11.77;;;13.30;99.90;;;;;;4995248;28;20045;-63
2022/10/30 01:44:11;;;;;;;14.75;10.45;;;13.20;99.90;;;;;;4995312;28;20049;-64
2022/10/30 01:46:51;;;;;;;22.75;11.18;;;13.20;99.90;;;;;;5012995;28;20049;-63
2022/10/30 01:49:46;;;;;;;16.85;11.55;;;13.20;99.90;;;;;;4992567;28;20065;-63
2022/10/30 01:52:18;;;;;;;20.55;10.93;;;13.10;99.90;;;;;;5008308;28;20042;-64
2022/10/30 01:54:52;;;;;;;18.92;10.77;;;13.10;99.90;;;;;;4995033;28;20095;-64
2022/10/30 01:57:34;;;;;;;21.27;10.57;;;13.10;99.90;;;;;;4994574;28;20133;-63
2022/10/30 02:00:05;;;;;;;18.15;10.07;;;13.10;99.90;;;;;;5012884;28;20046;-63
2022/10/30 02:02:32;;;;;;;19.20;10.32;;;13.10;99.90;;;;;;5012559;28;20050;-63
2022/10/30 02:05:01;;;;;;;22.35;11.15;;;13.10;99.90;;;;;;4995230;28;20042;-62
2022/10/30 02:07:28;;;;;;;22.98;11.18;;;13.10;99.90;;;;;;5009895;28;20091;-63
2022/10/30 02:09:55;;;;;;;21.70;11.20;;;13.10;99.90;;;;;;5011100;28;20152;-63
2022/10/30 02:12:23;;;;;;;22.65;12.23;;;13.10;99.90;;;;;;4994626;28;20426;-62
2022/10/30 02:14:53;;;;;;;24.80;11.05;;;13.10;99.90;;;;;;5012124;28;20053;-63
2022/10/30 02:17:21;;;;;;;23.08;11.15;;;13.10;99.90;;;;;;4993280;28;20530;-63
2022/10/30 02:19:48;;;;;;;19.00;11.10;;;13.10;99.90;;;;;;5012518;28;20053;-64
2022/10/30 02:22:17;;;;;;;21.40;12.05;;;13.10;99.90;;;;;;5012685;28;20088;-64
2022/10/30 02:24:44;;;;;;;23.10;12.05;;;13.10;99.90;;;;;;4993626;28;20470;-64
2022/10/30 02:27:11;;;;;;;18.15;11.10;;;13.10;99.90;;;;;;5012285;28;20057;-63
2022/10/30 02:29:38;;;;;;;19.70;11.55;;;13.10;99.90;;;;;;5010866;28;20485;-63
2022/10/30 02:32:05;;;;;;;21.33;11.68;;;13.00;99.90;;;;;;4993832;28;20552;-63
2022/10/30 02:34:32;;;;;;;19.20;11.27;;;13.00;99.90;;;;;;4992930;28;20050;-63
2022/10/30 02:36:59;;;;;;;18.42;10.43;;;13.00;99.90;;;;;;5011850;28;20045;-63
2022/10/30 02:39:27;;;;;;;20.90;11.77;;;13.00;99.90;;;;;;4993748;28;20046;-63
2022/10/30 02:41:54;;;;;;;22.02;11.30;;;13.00;99.90;;;;;;5012134;28;20525;-64
2022/10/30 02:44:21;;;;;;;22.83;10.82;;;13.00;99.90;;;;;;5011705;28;20046;-63
2022/10/30 02:46:48;;;;;;;24.85;10.48;;;13.00;99.90;;;;;;5010099;28;20436;-64
2022/10/30 02:49:14;;;;;;;29.48;11.43;;;13.00;99.90;;;;;;4994700;28;20119;-64
2022/10/30 02:51:41;;;;;;;21.13;10.82;;;12.90;99.90;;;;;;4994228;28;20046;-63
2022/10/30 02:54:08;;;;;;;19.08;11.20;;;12.90;99.90;;;;;;4994292;28;20104;-64
2022/10/30 02:56:36;;;;;;;23.73;11.25;;;13.00;99.90;;;;;;5011878;28;20045;-63
2022/10/30 02:59:03;;;;;;;16.63;9.88;;;12.90;99.90;;;;;;4992136;28;20050;-63
2022/10/30 03:01:30;;;;;;;22.52;11.32;;;13.00;99.90;;;;;;4994287;28;20494;-63
2022/10/30 03:03:57;;;;;;;22.90;10.35;;;13.00;99.90;;;;;;5011755;28;20049;-63
2022/10/30 03:06:24;;;;;;;22.50;11.70;;;13.00;99.90;;;;;;5010572;28;20482;-63
2022/10/30 03:08:51;;;;;;;18.10;11.57;;;13.00;99.90;;;;;;5011478;28;20444;-63
2022/10/30 03:11:19;;;;;;;23.58;11.45;;;13.00;99.90;;;;;;5011844;28;20092;-63
2022/10/30 03:13:48;;;;;;;23.23;11.43;;;12.90;99.90;;;;;;5010959;28;20112;-63
2022/10/30 03:16:17;;;;;;;23.23;10.93;;;12.90;99.90;;;;;;4992463;28;20554;-63
2022/10/30 03:18:45;;;;;;;22.48;11.73;;;12.90;99.90;;;;;;4994223;28;20053;-63
2022/10/30 03:21:14;;;;;;;23.75;11.55;;;12.90;99.90;;;;;;5011004;28;20096;-63
2022/10/30 03:23:42;;;;;;;19.58;12.40;;;12.80;99.90;;;;;;4994649;28;20453;-63
2022/10/30 03:26:09;;;;;;;26.13;11.73;;;12.80;99.90;;;;;;5011804;28;20046;-64
2022/10/30 03:28:36;;;;;;;17.35;11.50;;;12.80;99.90;;;;;;4993470;28;20054;-63
2022/10/30 03:31:07;;;;;;;22.50;12.20;;;12.80;99.90;;;;;;4992067;28;20049;-64
2022/10/30 03:33:34;;;;;;;;;;;12.80;99.90;;;;;;5011476;28;20092;-64
2022/10/30 03:36:02;;;;;;;22.05;11.05;;;12.80;99.90;;;;;;4994057;28;20296;-64
2022/10/30 03:38:28;;;;;;;21.75;11.32;;;12.70;99.90;;;;;;5015494;28;20045;-63
2022/10/30 03:40:55;;;;;;;22.42;11.38;;;12.70;99.90;;;;;;5014624;28;20042;-63
2022/10/30 03:43:22;;;;;;;26.55;12.65;;;12.70;99.90;;;;;;4997506;28;20560;-64
2022/10/30 03:45:51;;;;;;;33.95;11.50;;;12.70;99.90;;;;;;5015159;28;20049;-63
2022/10/30 03:48:22;;;;;;;20.58;11.15;;;12.70;99.90;;;;;;5014523;28;20391;-63
2022/10/30 03:50:49;;;;;;;21.83;11.88;;;12.70;99.90;;;;;;5015037;28;20096;-63
2022/10/30 03:53:15;;;;;;;22.73;11.68;;;12.70;99.90;;;;;;4995564;28;20108;-64
2022/10/30 03:55:42;;;;;;;19.63;11.63;;;12.70;99.90;;;;;;4997113;28;21444;-64
2022/10/30 03:58:09;;;;;;;20.15;11.00;;;12.70;99.90;;;;;;4997493;28;20116;-63
2022/10/30 04:00:37;;;;;;;16.20;11.00;;;12.70;99.90;;;;;;4996697;28;20053;-63
2022/10/30 04:03:07;;;;;;;26.10;12.60;;;12.70;99.90;;;;;;5014149;28;20448;-64
2022/10/30 04:05:36;;;;;;;19.65;11.35;;;12.70;99.90;;;;;;4997338;28;20485;-63
2022/10/30 04:08:06;;;;;;;19.70;11.15;;;12.70;99.90;;;;;;5014780;28;20497;-63
2022/10/30 04:10:33;;;;;;;22.85;12.73;;;12.60;99.90;;;;;;5013626;28;20061;-63
2022/10/30 04:13:01;;;;;;;22.88;11.75;;;12.60;99.90;;;;;;5014477;28;20042;-63
2022/10/30 04:15:28;;;;;;;19.92;12.52;;;12.70;99.90;;;;;;4996965;28;20054;-64
2022/10/30 04:17:55;;;;;;;26.30;12.40;;;12.60;99.90;;;;;;4996257;28;20104;-64
2022/10/30 04:20:24;;;;;;;25.95;12.57;;;12.60;99.90;;;;;;4997146;28;20061;-63
2022/10/30 04:22:56;;;;;;;17.73;11.77;;;12.60;99.90;;;;;;5014200;28;20087;-62
2022/10/30 04:25:23;;;;;;;24.55;11.95;;;12.60;99.90;;;;;;4996621;28;20111;-63
2022/10/30 04:27:51;;;;;;;18.83;11.95;;;12.60;99.90;;;;;;4996974;28;20116;-63
2022/10/30 04:30:20;;;;;;;26.42;13.02;;;12.60;99.90;;;;;;4996516;28;20108;-63
2022/10/30 04:32:47;;;;;;;26.17;12.82;;;12.60;99.90;;;;;;5014362;28;20123;-64
2022/10/30 04:35:15;;;;;;;22.05;13.18;;;12.60;99.90;;;;;;5014643;28;20045;-63
2022/10/30 04:37:42;;;;;;;21.40;13.25;;;12.60;99.90;;;;;;5013574;28;20049;-63
2022/10/30 04:40:12;;;;;;;26.90;12.88;;;12.60;99.90;;;;;;5013873;28;20071;-64
2022/10/30 04:42:39;;;;;;;23.17;12.57;;;12.60;99.90;;;;;;5011546;28;20053;-63
2022/10/30 04:45:07;;;;;;;19.83;12.30;;;12.60;99.90;;;;;;4996273;28;20490;-62
2022/10/30 04:47:34;;;;;;;24.02;13.50;;;12.50;99.90;;;;;;4996232;28;20042;-64
2022/10/30 04:50:01;;;;;;;18.65;11.57;;;12.50;99.90;;;;;;4996321;28;20042;-63
2022/10/30 04:52:27;;;;;;;26.75;13.00;;;12.50;99.90;;;;;;5013084;28;20057;-63
2022/10/30 04:54:54;;;;;;;29.88;13.68;;;12.50;99.90;;;;;;5014075;28;20092;-63
2022/10/30 04:57:23;;;;;;;22.42;12.35;;;12.50;99.90;;;;;;4995979;28;20049;-63
2022/10/30 04:59:50;;;;;;;24.17;13.07;;;12.50;99.90;;;;;;5011536;28;20394;-63
2022/10/30 05:02:18;;;;;;;23.15;12.73;;;12.40;99.90;;;;;;4996534;28;20100;-62
2022/10/30 05:04:45;;;;;;;26.00;13.00;;;12.40;99.90;;;;;;4996644;28;20116;-63
2022/10/30 05:07:12;;;;;;;18.85;12.00;;;12.40;99.90;;;;;;5013008;28;20065;-63
2022/10/30 05:09:39;;;;;;;20.10;12.38;;;12.40;99.90;;;;;;5013585;28;20050;-63
2022/10/30 05:12:06;;;;;;;21.25;12.95;;;12.40;99.90;;;;;;4995500;28;20089;-64
2022/10/30 05:14:35;;;;;;;27.90;13.68;;;12.40;99.90;;;;;;4996148;28;20061;-63
2022/10/30 05:17:02;;;;;;;27.80;13.45;;;12.40;99.90;;;;;;4995271;28;20049;-64
2022/10/30 05:19:28;;;;;;;25.13;13.20;;;12.40;99.90;;;;;;4992758;28;20057;-64
2022/10/30 05:21:55;;;;;;;20.30;12.80;;;12.40;99.90;;;;;;4995590;28;20095;-64
2022/10/30 05:24:22;;;;;;;23.83;12.85;;;12.40;99.90;;;;;;5013656;28;20472;-64
2022/10/30 05:26:50;;;;;;;25.75;12.50;;;12.40;99.90;;;;;;4995143;28;20556;-63
2022/10/30 05:29:17;;;;;;;31.23;13.18;;;12.40;99.90;;;;;;5013085;28;20050;-63
2022/10/30 05:31:45;;;;;;;24.75;13.63;;;12.40;99.90;;;;;;5013308;28;20054;-66
2022/10/30 05:34:12;;;;;;;24.67;12.07;;;12.40;99.90;;;;;;4995461;28;20046;-63
2022/10/30 05:36:39;;;;;;;25.80;12.57;;;12.40;99.90;;;;;;5012963;28;20049;-63
2022/10/30 05:39:05;;;;;;;25.73;13.70;;;12.40;99.90;;;;;;4995316;28;20104;-63
2022/10/30 05:41:32;;;;;;;20.05;12.43;;;12.40;99.90;;;;;;5012292;28;20052;-64
2022/10/30 05:43:59;;;;;;;24.75;12.15;;;12.40;99.90;;;;;;4993285;28;20054;-63
2022/10/30 05:46:26;;;;;;;22.15;12.82;;;12.30;99.90;;;;;;5012843;28;20124;-63
2022/10/30 05:48:54;;;;;;;20.45;12.13;;;12.40;99.90;;;;;;5012405;28;20088;-63
2022/10/30 05:51:21;;;;;;;29.75;13.00;;;12.30;99.90;;;;;;5012975;28;20497;-63
2022/10/30 05:53:48;;;;;;;28.58;13.43;;;12.30;99.90;;;;;;4995357;28;20556;-64
2022/10/30 05:56:15;;;;;;;23.55;12.70;;;12.30;99.90;;;;;;5011998;28;20050;-62
2022/10/30 05:58:42;;;;;;;27.85;12.90;;;12.20;99.90;;;;;;4994415;28;20481;-63
2022/10/30 06:01:09;;;;;;;28.38;11.93;;;12.20;99.90;;;;;;4992226;28;20108;-64
2022/10/30 06:03:36;;;;;;;25.13;13.43;;;12.20;99.90;;;;;;4995083;28;20053;-63
2022/10/30 06:06:05;;;;;;;20.58;11.75;;;12.10;99.90;;;;;;4995341;28;20477;-62
2022/10/30 06:08:31;;;;;;;22.25;13.02;;;12.10;99.90;;;;;;4992598;28;20049;-63
2022/10/30 06:10:59;;;;;;;23.33;12.77;;;12.10;99.90;;;;;;5011046;28;20058;-62
2022/10/30 06:13:26;;;;;;;25.73;14.20;;;12.10;99.90;;;;;;5009694;28;20042;-62
2022/10/30 06:15:55;;;;;;;28.77;14.05;;;12.10;99.90;;;;;;5011827;28;20046;-62
2022/10/30 06:18:22;;;;;;;24.40;13.02;;;12.00;99.90;;;;;;4993703;28;20056;-63
2022/10/30 06:20:49;;;;;;;27.38;13.95;;;12.00;99.90;;;;;;5012161;28;20054;-62
2022/10/30 06:23:17;;;;;;;24.90;13.23;;;12.00;99.90;;;;;;4994300;28;20057;-62
2022/10/30 06:25:44;;;;;;;23.48;12.98;;;12.00;99.90;;;;;;5012162;28;20096;-63
2022/10/30 06:28:12;;;;;;;26.63;15.30;;;11.90;99.90;;;;;;5012214;28;20901;-63
2022/10/30 06:30:39;;;;;;;22.60;13.38;;;11.90;99.90;;;;;;5011628;28;20049;-64
2022/10/30 06:33:07;;;;;;;26.83;12.85;;;11.90;99.90;;;;;;4994791;28;20104;-65
2022/10/30 06:35:34;;;;;;;24.80;12.77;;;11.90;99.90;;;;;;4994415;28;20058;-63
2022/10/30 06:38:01;;;;;;;25.48;13.32;;;11.90;99.90;;;;;;4991230;28;20107;-62
2022/10/30 06:40:29;;;;;;;23.17;13.50;;;11.90;99.90;;;;;;4994487;28;20508;-63
2022/10/30 06:42:56;;;;;;;27.30;13.40;;;11.90;99.90;;;;;;5007453;28;20052;-63
2022/10/30 06:45:24;;;;;;;22.83;12.90;;;11.90;99.90;;;;;;4978501;28;20050;-64
2022/10/30 06:47:51;;;;;;;26.98;13.93;;;12.00;99.90;;;;;;5004828;28;20465;-63
2022/10/30 06:50:20;;;;;;;25.58;13.55;;;12.10;99.90;;;;;;5006985;28;20046;-63
2022/10/30 06:52:48;;;;;;;21.30;11.48;;;12.20;99.90;;;;;;5006742;28;20065;-63
2022/10/30 06:55:15;;;;;;;25.35;12.25;;;12.30;99.90;;;;;;4989289;28;20058;-64
2022/10/30 06:57:43;;;;;;;23.45;11.90;;;12.40;99.90;;;;;;4987991;28;20528;-65
2022/10/30 07:00:12;;;;;;;22.63;12.20;;;12.50;99.90;;;;;;5006462;28;20066;-62
2022/10/30 07:02:39;;;;;;;22.60;11.75;;;12.50;99.90;;;;;;4989972;28;20558;-62
2022/10/30 07:05:06;;;;;;;22.23;12.05;;;12.60;99.90;;;;;;4990502;28;20529;-63
2022/10/30 07:07:33;;;;;;;21.30;12.25;;;12.60;99.90;;;;;;4990239;28;20111;-62
2022/10/30 07:10:00;;;;;;;18.17;12.55;;;12.60;99.90;;;;;;4990215;28;20063;-63
2022/10/30 07:12:26;;;;;;;22.38;12.35;;;12.70;99.90;;;;;;5008934;28;20058;-63
2022/10/30 07:14:55;;;;;;;20.35;11.48;;;12.70;99.90;;;;;;4992602;28;20494;-63
2022/10/30 07:17:21;;;;;;;24.23;11.38;;;12.80;99.90;;;;;;4994289;28;20046;-62
2022/10/30 07:19:48;;;;;;;22.15;12.20;;;12.90;99.90;;;;;;5009465;28;20452;-63
2022/10/30 07:22:15;;;;;;;22.20;12.52;;;13.00;99.90;;;;;;5009275;28;20050;-63
2022/10/30 07:24:42;;;;;;;27.20;12.43;;;13.10;99.90;;;;;;5008918;28;20461;-63
2022/10/30 07:27:09;;;;;;;17.45;11.70;;;13.10;99.90;;;;;;4989903;28;20062;-63
2022/10/30 07:29:36;;;;;;;17.98;10.80;;;13.30;99.90;;;;;;4996007;28;20061;-63
2022/10/30 07:32:05;;;;;;;25.15;12.18;;;13.50;99.90;;;;;;5009024;28;20481;-62
2022/10/30 07:34:33;;;;;;;18.20;10.65;;;13.80;99.90;;;;;;4990508;28;20042;-63
2022/10/30 07:37:00;;;;;;;23.65;11.07;;;14.20;99.90;;;;;;4989719;28;20458;-63
2022/10/30 07:39:27;;;;;;;25.40;11.05;;;14.80;99.90;;;;;;4990142;28;20085;-64
2022/10/30 07:41:53;;;;;;;18.23;9.10;;;15.50;99.90;;;;;;4993128;28;20120;-63
2022/10/30 07:44:20;;;;;;;17.23;10.05;;;16.10;99.90;;;;;;4991233;28;20115;-63
2022/10/30 07:46:47;;;;;;;18.77;9.13;;;16.80;99.90;;;;;;4989421;28;20509;-63
2022/10/30 07:49:15;;;;;;;22.58;9.75;;;17.20;99.90;;;;;;4989681;28;20053;-63
2022/10/30 07:51:43;;;;;;;18.55;8.50;;;17.50;99.90;;;;;;4996457;28;20073;-64
2022/10/30 07:54:10;;;;;;;17.50;9.25;;;17.80;99.90;;;;;;5008504;28;20050;-63
2022/10/30 07:56:37;;;;;;;19.20;9.68;;;18.10;99.90;;;;;;4991868;28;20062;-63
2022/10/30 07:59:04;;;;;;;13.23;8.40;;;18.60;99.90;;;;;;4991231;28;20054;-63
2022/10/30 08:01:31;;;;;;;18.92;9.07;;;19.20;99.90;;;;;;4994159;28;20563;-63
2022/10/30 08:03:58;;;;;;;15.65;8.02;;;19.60;99.90;;;;;;4991897;28;20172;-63
2022/10/30 08:06:26;;;;;;;16.55;8.60;;;20.10;99.90;;;;;;5007886;28;20402;-64
2022/10/30 08:08:53;;;;;;;15.65;8.48;;;20.60;99.90;;;;;;5005310;28;20050;-64
2022/10/30 08:11:20;;;;;;;13.20;8.43;;;21.10;99.90;;;;;;4990078;28;20062;-63
2022/10/30 08:13:47;;;;;;;15.73;8.18;;;21.60;99.90;;;;;;5010424;28;20405;-62
2022/10/30 08:16:16;;;;;;;13.23;7.20;;;22.10;99.90;;;;;;5007422;28;20050;-64
2022/10/30 08:18:43;;;;;;;16.17;8.35;;;22.30;99.90;;;;;;4988168;28;20084;-63
2022/10/30 08:21:09;;;;;;;14.95;7.97;;;22.60;99.90;;;;;;5008356;28;20457;-63
2022/10/30 08:23:38;;;;;;;13.23;7.78;;;22.80;99.90;;;;;;4990721;28;20374;-64
2022/10/30 08:26:05;;;;;;;16.15;8.50;;;23.10;99.90;;;;;;4991676;28;20116;-63
2022/10/30 08:28:33;;;;;;;16.83;7.30;;;23.30;99.90;;;;;;5006033;28;20060;-64
2022/10/30 08:31:01;;;;;;;18.92;7.60;;;23.70;99.90;;;;;;5009992;28;20046;-63
2022/10/30 08:33:28;;;;;;;15.25;7.90;;;24.00;99.90;;;;;;4990904;28;20560;-64
2022/10/30 08:35:56;;;;;;;16.40;7.68;;;24.10;99.90;;;;;;4990097;28;20096;-62
2022/10/30 08:38:24;;;;;;;12.25;7.18;;;23.80;99.90;;;;;;5008578;28;20104;-63
2022/10/30 08:40:52;;;;;;;14.60;7.68;;;23.80;99.90;;;;;;4988582;28;20113;-63
2022/10/30 08:43:20;;;;;;;16.42;8.05;;;24.00;99.90;;;;;;5009364;28;20042;-64
2022/10/30 08:45:47;;;;;;;14.48;7.47;;;24.10;99.90;;;;;;5006941;28;20068;-63
2022/10/30 08:48:16;;;;;;;15.70;7.57;;;24.50;99.90;;;;;;5007979;28;20107;-64
2022/10/30 08:50:43;;;;;;;12.35;7.55;;;24.90;99.90;;;;;;4991829;28;20485;-64
2022/10/30 08:53:14;;;;;;;13.88;6.70;;;25.30;99.90;;;;;;5009509;28;20104;-64
2022/10/30 08:55:42;;;;;;;17.48;7.72;;;25.70;99.90;;;;;;4988025;28;20100;-65
2022/10/30 08:58:10;;;;;;;14.48;6.78;;;26.00;99.90;;;;;;5007208;28;20465;-63
2022/10/30 09:00:37;;;;;;;17.30;8.13;;;26.40;99.90;;;;;;5009391;28;20056;-65
2022/10/30 09:03:04;;;;;;;13.45;6.72;;;26.70;99.90;;;;;;4991475;28;20121;-64
2022/10/30 09:05:31;;;;;;;14.88;6.68;;;27.30;99.90;;;;;;4988072;28;20444;-64
2022/10/30 09:07:59;;;;;;;13.18;6.68;;;27.80;99.90;;;;;;5006401;28;20126;-63
2022/10/30 09:10:26;;;;;;;12.23;7.07;;;28.10;99.10;;;;;;4990687;28;20050;-64
2022/10/30 09:12:57;;;;;;;15.82;7.90;;;28.20;98.20;;;;;;5008681;28;20049;-64
2022/10/30 09:15:26;;;;;;;13.20;7.35;;;28.40;95.50;;;;;;5008379;28;20042;-64
2022/10/30 09:17:57;;;;;;;13.40;7.32;;;28.50;97.00;;;;;;5006657;28;20050;-63
2022/10/30 09:20:24;;;;;;;15.85;6.85;;;28.40;96.20;;;;;;5006173;28;20504;-63
2022/10/30 09:22:51;;;;;;;12.63;6.68;;;28.30;96.50;;;;;;4990569;28;20054;-64
2022/10/30 09:25:18;;;;;;;18.80;6.60;;;28.70;96.40;;;;;;4989724;28;20050;-62
2022/10/30 09:27:45;;;;;;;13.73;7.15;;;28.70;96.00;;;;;;5007914;28;20050;-65
2022/10/30 09:30:12;;;;;;;15.30;7.82;;;29.30;95.30;;;;;;4993079;28;20544;-65
2022/10/30 09:32:41;;;;;;;17.30;7.28;;;29.50;94.40;;;;;;4988549;28;20509;-64
2022/10/30 09:35:09;;;;;;;12.57;7.10;;;29.10;94.00;;;;;;4989502;28;20100;-64
2022/10/30 09:37:36;;;;;;;19.67;6.60;;;28.90;94.20;;;;;;5005582;28;20100;-63
2022/10/30 09:40:03;;;;;;;13.90;6.85;;;29.10;94.20;;;;;;4989477;28;20053;-64
2022/10/30 09:42:43;;;;;;;11.80;7.10;;;29.00;93.90;;;;;;4993074;28;20128;-64
2022/10/30 09:45:40;;;;;;;14.07;6.82;;;29.20;93.00;;;;;;5006784;28;20100;-64
2022/10/30 09:48:37;;;;;;;17.20;7.97;;;29.60;91.80;;;;;;4986963;28;20053;-65
2022/10/30 09:51:16;;;;;;;15.18;6.43;;;30.10;90.90;;;;;;5010781;28;20100;-64
2022/10/30 09:53:54;;;;;;;18.40;7.05;;;30.10;91.40;;;;;;4987763;28;20451;-65
2022/10/30 09:56:27;;;;;;;10.27;6.22;;;30.40;91.40;;;;;;4989084;28;20050;-64
2022/10/30 09:59:06;;;;;;;14.98;6.80;;;29.60;91.30;;;;;;4987399;28;20045;-65
2022/10/30 10:01:41;;;;;;;18.00;7.30;;;28.80;91.80;;;;;;4988850;28;20049;-64
2022/10/30 10:04:23;;;;;;;16.50;7.85;;;28.20;93.30;;;;;;4987446;28;20050;-64
2022/10/30 10:06:56;;;;;;;13.60;6.35;;;27.60;93.20;;;;;;4992396;28;20057;-64
2022/10/30 10:09:26;;;;;;;13.57;7.25;;;27.70;94.30;;;;;;4988619;28;20091;-64
2022/10/30 10:11:56;;;;;;;12.65;6.55;;;27.10;94.70;;;;;;4993278;28;20054;-64
2022/10/30 10:14:24;;;;;;;;;;;27.70;94.40;;;;;;5007771;28;20095;-64
2022/10/30 10:16:53;;;;;;;16.05;7.00;;;28.40;93.50;;;;;;4986950;28;19921;-64
2022/10/30 10:19:23;;;;;;;14.10;6.85;;;29.10;93.30;;;;;;4987662;28;20062;-64
2022/10/30 10:21:56;;;;;;;12.65;7.10;;;30.20;92.50;;;;;;5005386;28;20720;-65
2022/10/30 10:24:25;;;;;;;14.00;6.47;;;30.80;90.60;;;;;;5002315;28;20057;-64
2022/10/30 10:26:56;;;;;;;;;;;30.50;90.90;;;;;;5010669;28;20112;-63
2022/10/30 10:29:38;;;;;;;13.68;6.47;;;30.10;90.70;;;;;;4993203;28;19975;-65
2022/10/30 10:32:21;;;;;;;14.65;6.47;;;30.10;90.90;;;;;;4991881;28;20486;-65
2022/10/30 10:34:59;;;;;;;12.68;6.13;;;29.50;91.20;;;;;;4989344;28;20050;-64
2022/10/30 10:37:38;;;;;;;17.00;6.93;;;28.90;92.20;;;;;;4997862;28;20155;-65
2022/10/30 10:40:26;;;;;;;15.63;6.40;;;28.20;92.30;;;;;;5009317;28;20453;-64
2022/10/30 10:43:09;;;;;;;16.40;6.13;;;28.20;92.70;;;;;;4986566;28;20311;-66
2022/10/30 10:45:44;;;;;;;14.43;6.50;;;28.80;92.50;;;;;;5006160;28;20110;-65
2022/10/30 10:48:37;;;;;;;13.23;6.55;;;29.80;91.50;;;;;;4989505;28;20137;-65
2022/10/30 10:51:10;;;;;;;16.23;6.38;;;30.20;90.10;;;;;;4989061;28;20049;-64
2022/10/30 10:53:43;;;;;;;12.98;6.32;;;30.40;91.20;;;;;;4987665;28;20112;-65
2022/10/30 10:56:11;;;;;;;14.57;6.65;;;30.40;90.70;;;;;;4987518;28;20057;-64
2022/10/30 10:58:44;;;;;;;15.07;5.97;;;30.20;91.10;;;;;;5004869;28;20046;-64
2022/10/30 11:01:17;;;;;;;14.65;5.75;;;29.90;91.00;;;;;;4986806;28;20178;-64
2022/10/30 11:03:51;;;;;;;12.57;5.25;;;29.80;90.90;;;;;;4985547;28;20100;-65
2022/10/30 11:06:26;;;;;;;11.77;5.10;;;29.60;91.50;;;;;;4985291;28;20062;-64
2022/10/30 11:09:01;;;;;;;11.85;5.43;;;29.70;90.90;;;;;;5004170;28;20108;-65
2022/10/30 11:11:28;;;;;;;11.05;6.20;;;29.90;91.10;;;;;;5004484;28;20100;-65
2022/10/30 11:13:55;;;;;;;13.77;6.25;;;29.40;91.10;;;;;;5003893;28;20042;-65
2022/10/30 11:16:29;;;;;;;10.80;6.15;;;28.80;91.50;;;;;;4992881;28;20504;-64
2022/10/30 11:19:00;;;;;;;13.30;5.15;;;28.30;91.90;;;;;;5003297;28;20052;-64
2022/10/30 11:21:32;;;;;;;13.40;5.60;;;28.40;92.20;;;;;;5003217;28;20517;-65
2022/10/30 11:23:59;;;;;;;9.13;5.60;;;28.40;92.10;;;;;;5007255;28;20375;-65
2022/10/30 11:26:32;;;;;;;11.98;5.85;;;28.70;92.70;;;;;;4986454;28;20054;-65
2022/10/30 11:29:03;;;;;;;14.93;6.07;;;29.30;92.00;;;;;;5003905;28;20050;-65
2022/10/30 11:31:34;;;;;;;11.70;5.40;;;30.10;91.10;;;;;;4987934;28;20065;-65
2022/10/30 11:34:14;;;;;;;11.15;5.47;;;30.30;90.70;;;;;;5004498;28;20494;-66
2022/10/30 11:36:43;;;;;;;12.65;5.82;;;30.30;89.90;;;;;;5005247;28;20109;-66
2022/10/30 11:39:11;;;;;;;13.55;6.40;;;30.00;90.90;;;;;;5003615;28;20452;-65
2022/10/30 11:41:39;;;;;;;9.30;5.45;;;29.70;90.90;;;;;;4990147;28;20054;-65
2022/10/30 11:44:06;;;;;;;13.23;4.93;;;29.60;91.10;;;;;;5003852;28;20527;-65
2022/10/30 11:46:35;;;;;;;13.57;5.70;;;29.80;91.00;;;;;;4986160;28;20116;-65
2022/10/30 11:49:02;;;;;;;11.95;5.53;;;30.00;90.80;;;;;;4988032;28;20497;-65
2022/10/30 11:51:35;;;;;;;10.75;5.00;;;30.00;90.80;;;;;;5007097;28;20493;-64
2022/10/30 11:54:04;;;;;;;12.70;5.65;;;29.60;90.90;;;;;;5002788;28;20112;-65
2022/10/30 11:56:34;;;;;;;14.45;5.78;;;28.80;91.50;;;;;;5006034;28;20100;-65
2022/10/30 11:59:03;;;;;;;11.95;5.05;;;27.70;92.20;;;;;;4990790;28;20065;-64
2022/10/30 12:01:34;;;;;;;13.85;4.70;;;27.50;93.10;;;;;;5007991;28;20527;-64
2022/10/30 12:04:14;;;;;;;12.45;5.63;;;28.00;93.10;;;;;;5007408;28;20101;-64
2022/10/30 12:06:41;;;;;;;10.20;5.50;;;27.70;93.10;;;;;;4990821;28;20054;-64
2022/10/30 12:09:14;;;;;;;8.90;5.32;;;27.60;93.30;;;;;;4990624;28;20105;-63
2022/10/30 12:11:43;;;;;;;12.15;5.70;;;27.20;93.50;;;;;;5010873;28;20089;-65
2022/10/30 12:14:18;;;;;;;11.10;5.63;;;27.00;94.10;;;;;;5007314;28;20077;-65
2022/10/30 12:16:47;;;;;;;13.27;4.95;;;26.80;94.50;;;;;;4990196;28;20490;-64
2022/10/30 12:19:16;;;;;;;9.67;5.30;;;26.50;94.60;;;;;;4991337;28;20112;-65
2022/10/30 12:21:46;;;;;;;10.30;5.32;;;26.50;94.90;;;;;;5010569;28;20108;-65
2022/10/30 12:24:20;;;;;;;12.40;5.30;;;26.70;95.20;;;;;;4988758;28;20053;-64
2022/10/30 12:26:49;;;;;;;13.00;5.68;;;27.50;94.40;;;;;;5006739;28;20453;-65
2022/10/30 12:29:20;;;;;;;14.10;5.18;;;27.50;94.10;;;;;;5007962;28;20165;-65
2022/10/30 12:31:55;;;;;;;11.23;5.47;;;27.60;94.00;;;;;;4991095;28;20056;-65
2022/10/30 12:34:39;;;;;;;10.88;4.80;;;27.30;94.00;;;;;;5008344;28;20061;-70
2022/10/30 12:37:13;;;;;;;16.85;5.63;;;26.80;94.30;;;;;;4990518;28;20053;-71
2022/10/30 12:39:58;;;;;;;21.65;5.82;;;26.40;94.80;;;;;;4990154;28;20054;-68
2022/10/30 12:42:26;;;;;;;20.42;4.80;;;26.70;95.10;;;;;;5008529;28;20568;-68